createdAt,value
2018-02-21T00:00:54.410Z,51.50
2018-02-21T00:03:21.880Z,51.70
2018-02-21T00:05:50.880Z,50.42
2018-02-21T00:08:18.363Z,50.72
2018-02-21T00:10:45.839Z,54.92
2018-02-21T00:13:13.354Z,55.58
2018-02-21T00:15:40.807Z,54.75
2018-02-21T00:18:08.287Z,53.75
2018-02-21T00:20:36.550Z,53.63
2018-02-21T00:23:04.794Z,50.08
2018-02-21T00:25:32.273Z,52.55
2018-02-21T00:27:59.776Z,53.35
2018-02-21T00:30:27.246Z,55.53
2018-02-21T00:32:54.719Z,54.50
2018-02-21T00:35:22.210Z,54.35
2018-02-21T00:37:50.454Z,52.33
2018-02-21T00:40:18.014Z,53.45
2018-02-21T00:42:45.513Z,50.83
2018-02-21T00:45:13.746Z,50.83
2018-02-21T00:47:41.222Z,53.35
2018-02-21T00:50:09.490Z,51.75
2018-02-21T00:52:36.963Z,51.55
2018-02-21T00:55:05.198Z,53.50
2018-02-21T00:57:32.695Z,50.58
2018-02-21T01:00:00.946Z,52.10
2018-02-21T01:02:28.422Z,49.80
2018-02-21T01:04:56.944Z,52.20
2018-02-21T01:07:24.409Z,54.92
2018-02-21T01:09:51.878Z,51.85
2018-02-21T01:12:19.362Z,50.65
2018-02-21T01:14:46.835Z,51.58
2018-02-21T01:17:15.070Z,50.80
2018-02-21T01:19:42.563Z,52.70
2018-02-21T01:22:10.811Z,53.90
2018-02-21T01:24:38.310Z,55.38
2018-02-21T01:27:05.901Z,54.20
2018-02-21T01:29:33.370Z,53.17
2018-02-21T01:32:00.866Z,53.35
2018-02-21T01:34:29.105Z,51.97
2018-02-21T01:36:56.578Z,49.03
2018-02-21T01:39:24.082Z,52.40
2018-02-21T01:41:51.653Z,51.95
2018-02-21T01:44:19.153Z,50.25
2018-02-21T01:46:46.646Z,51.33
2018-02-21T01:49:14.117Z,51.42
2018-02-21T01:51:41.584Z,51.83
2018-02-21T01:54:09.075Z,51.47
2018-02-21T01:56:36.541Z,51.88
2018-02-21T01:59:04.018Z,50.60
2018-02-21T02:01:32.279Z,52.13
2018-02-21T02:03:59.754Z,51.40
2018-02-21T02:06:27.982Z,49.83
2018-02-21T02:08:55.470Z,54.47
2018-02-21T02:11:22.943Z,51.30
2018-02-21T02:13:51.171Z,51.63
2018-02-21T02:16:18.655Z,52.35
2018-02-21T02:18:46.132Z,52.40
2018-02-21T02:21:14.375Z,51.80
2018-02-21T02:23:41.862Z,49.65
2018-02-21T02:26:10.094Z,49.13
2018-02-21T02:28:37.573Z,53.28
2018-02-21T02:31:05.053Z,51.10
2018-02-21T02:33:33.311Z,51.28
2018-02-21T02:36:01.564Z,51.92
2018-02-21T02:38:40.968Z,53.45
2018-02-21T02:41:08.441Z,50.42
2018-02-21T02:43:35.976Z,51.42
2018-02-21T02:46:03.465Z,52.80
2018-02-21T02:48:30.929Z,52.88
2018-02-21T02:50:58.403Z,50.95
2018-02-21T02:53:25.898Z,50.92
2018-02-21T02:55:53.420Z,53.40
2018-02-21T02:58:20.886Z,52.90
2018-02-21T03:00:49.140Z,54.90
2018-02-21T03:03:17.372Z,52.40
2018-02-21T03:05:44.870Z,50.20
2018-02-21T03:08:12.336Z,51.40
2018-02-21T03:10:40.509Z,53.00
2018-02-21T03:13:07.990Z,52.83
2018-02-21T03:15:35.458Z,54.80
2018-02-21T03:18:02.969Z,53.60
2018-02-21T03:20:30.444Z,52.88
2018-02-21T03:22:58.679Z,52.15
2018-02-21T03:25:26.151Z,52.62
2018-02-21T03:27:53.646Z,50.65
2018-02-21T03:30:21.895Z,54.88
2018-02-21T03:32:49.400Z,49.17
2018-02-21T03:35:16.925Z,48.35
2018-02-21T03:37:45.150Z,50.75
2018-02-21T03:40:12.627Z,50.83
2018-02-21T03:42:40.118Z,49.90
2018-02-21T03:45:08.353Z,52.85
2018-02-21T03:47:35.850Z,53.00
2018-02-21T03:50:04.115Z,49.08
2018-02-21T03:52:32.362Z,54.00
2018-02-21T03:54:59.826Z,53.45
2018-02-21T03:57:27.323Z,53.03
2018-02-21T03:59:54.798Z,54.63
2018-02-21T04:02:22.270Z,51.58
2018-02-21T04:04:49.758Z,56.58
2018-02-21T04:07:17.270Z,51.70
2018-02-21T04:09:44.730Z,53.15
2018-02-21T04:12:12.291Z,54.92
2018-02-21T04:14:39.751Z,56.17
2018-02-21T04:17:07.218Z,52.25
2018-02-21T04:19:34.710Z,53.90
2018-02-21T04:22:02.198Z,57.58
2018-02-21T04:24:29.697Z,52.95
2018-02-21T04:26:57.138Z,56.85
2018-02-21T04:29:24.617Z,55.83
2018-02-21T04:31:52.079Z,55.83
2018-02-21T04:34:19.587Z,54.97
2018-02-21T04:36:47.042Z,56.47
2018-02-21T04:39:14.514Z,55.67
2018-02-21T04:41:42.014Z,56.72
2018-02-21T04:44:09.490Z,58.80
2018-02-21T04:46:37.798Z,60.70
2018-02-21T04:49:05.299Z,58.72
2018-02-21T04:51:32.770Z,57.33
2018-02-21T04:54:01.001Z,57.50
2018-02-21T04:56:34.190Z,57.70
2018-02-21T04:59:06.282Z,59.83
2018-02-21T05:01:33.835Z,56.90
2018-02-21T05:04:01.304Z,54.72
2018-02-21T05:06:28.779Z,55.50
2018-02-21T05:08:57.151Z,55.70
2018-02-21T05:11:25.396Z,57.67
2018-02-21T05:13:55.695Z,58.40
2018-02-21T05:16:23.176Z,55.55
2018-02-21T05:18:50.644Z,57.10
2018-02-21T05:21:18.112Z,58.05
2018-02-21T05:23:45.598Z,59.10
2018-02-21T05:26:13.091Z,58.65
2018-02-21T05:28:40.623Z,60.42
2018-02-21T05:31:08.119Z,60.38
2018-02-21T05:33:35.603Z,66.50
2018-02-21T05:36:03.101Z,61.50
2018-02-21T05:38:30.659Z,62.45
2018-02-21T05:40:58.220Z,61.25
2018-02-21T05:43:25.697Z,61.08
2018-02-21T05:45:53.167Z,63.90
2018-02-21T05:48:23.871Z,59.35
2018-02-21T05:50:51.343Z,61.03
2018-02-21T05:53:18.825Z,59.53
2018-02-21T05:55:46.316Z,61.60
2018-02-21T05:58:14.543Z,58.60
2018-02-21T06:00:42.023Z,62.83
2018-02-21T06:03:09.506Z,60.33
2018-02-21T06:05:37.771Z,60.10
2018-02-21T06:08:06.032Z,59.55
2018-02-21T06:10:34.275Z,57.08
2018-02-21T06:13:01.748Z,58.97
2018-02-21T06:15:29.232Z,59.72
2018-02-21T06:17:57.463Z,58.08
2018-02-21T06:20:24.926Z,62.45
2018-02-21T06:22:52.418Z,58.67
2018-02-21T06:25:20.660Z,60.80
2018-02-21T06:27:48.143Z,57.95
2018-02-21T06:30:16.393Z,60.90
2018-02-21T06:32:43.864Z,59.42
2018-02-21T06:35:11.361Z,62.38
2018-02-21T06:37:38.832Z,63.38
2018-02-21T06:40:06.307Z,63.50
2018-02-21T06:42:33.795Z,62.40
2018-02-21T06:45:02.021Z,60.78
2018-02-21T06:47:29.510Z,59.70
2018-02-21T06:49:57.054Z,59.97
2018-02-21T06:52:24.522Z,62.40
2018-02-21T06:54:52.010Z,58.20
2018-02-21T06:57:20.242Z,63.10
2018-02-21T06:59:47.723Z,58.22
2018-02-21T07:02:27.077Z,58.97
2018-02-21T07:04:55.383Z,61.15
2018-02-21T07:07:22.865Z,60.78
2018-02-21T07:09:50.349Z,58.00
2018-02-21T07:12:17.859Z,61.63
2018-02-21T07:14:45.337Z,58.45
2018-02-21T07:17:12.806Z,60.00
2018-02-21T07:19:40.271Z,60.88
2018-02-21T07:22:07.768Z,60.12
2018-02-21T07:24:35.249Z,57.53
2018-02-21T07:27:02.734Z,58.78
2018-02-21T07:29:30.216Z,55.38
2018-02-21T07:31:58.452Z,56.22
2018-02-21T07:34:26.087Z,57.05
2018-02-21T07:36:53.551Z,54.83
2018-02-21T07:39:21.019Z,59.65
2018-02-21T07:41:48.540Z,56.97
2018-02-21T07:44:16.031Z,56.13
2018-02-21T07:46:43.518Z,59.17
2018-02-21T07:49:11.758Z,56.60
2018-02-21T07:51:39.227Z,55.30
2018-02-21T07:54:06.694Z,58.03
2018-02-21T07:56:35.688Z,53.17
2018-02-21T07:59:03.150Z,55.90
2018-02-21T08:01:30.664Z,55.80
2018-02-21T08:03:58.142Z,57.90
2018-02-21T08:06:25.601Z,56.93
2018-02-21T08:08:53.082Z,53.20
2018-02-21T08:11:20.592Z,54.87
2018-02-21T08:13:48.099Z,54.90
2018-02-21T08:16:15.606Z,57.77
2018-02-21T08:18:43.074Z,54.70
2018-02-21T08:21:10.539Z,56.17
2018-02-21T08:23:38.076Z,56.10
2018-02-21T08:26:05.548Z,53.83
2018-02-21T08:28:33.015Z,56.97
2018-02-21T08:31:00.514Z,58.27
2018-02-21T08:33:28.758Z,56.90
2018-02-21T08:35:56.247Z,56.20
2018-02-21T08:38:24.486Z,57.93
2018-02-21T08:40:51.965Z,56.57
2018-02-21T08:43:20.210Z,57.00
2018-02-21T08:45:47.711Z,56.20
2018-02-21T08:48:15.941Z,56.80
2018-02-21T08:50:43.466Z,54.40
2018-02-21T08:53:10.959Z,54.80
2018-02-21T08:55:38.456Z,55.00
2018-02-21T08:58:06.686Z,55.47
2018-02-21T09:00:34.172Z,56.77
2018-02-21T09:03:03.154Z,57.50
2018-02-21T09:05:30.726Z,57.93
2018-02-21T09:07:58.207Z,56.67
2018-02-21T09:10:26.447Z,54.50
2018-02-21T09:12:53.906Z,54.80
2018-02-21T09:15:21.371Z,52.80
2018-02-21T09:17:49.617Z,54.93
2018-02-21T09:20:17.091Z,53.33
2018-02-21T09:22:44.566Z,55.30
2018-02-21T09:25:12.833Z,52.60
2018-02-21T09:27:41.070Z,52.03
2018-02-21T09:30:08.555Z,54.60
2018-02-21T09:32:36.066Z,53.83
2018-02-21T09:35:03.532Z,54.50
2018-02-21T09:37:31.042Z,52.60
2018-02-21T09:39:59.290Z,55.33
2018-02-21T09:42:26.763Z,51.23
2018-02-21T09:44:54.234Z,53.50
2018-02-21T09:47:22.470Z,54.60
2018-02-21T09:49:49.953Z,53.70
2018-02-21T09:52:17.411Z,52.27
2018-02-21T09:54:45.448Z,51.50
2018-02-21T09:57:13.738Z,51.30
2018-02-21T09:59:41.262Z,54.40
2018-02-21T10:02:08.727Z,52.50
2018-02-21T10:04:36.217Z,53.77
2018-02-21T10:07:03.707Z,53.23
2018-02-21T10:09:31.926Z,50.87
2018-02-21T10:12:00.116Z,51.40
2018-02-21T10:14:27.851Z,52.70
2018-02-21T10:16:55.337Z,53.27
2018-02-21T10:19:24.191Z,50.23
2018-02-21T10:21:51.686Z,50.50
2018-02-21T10:24:19.738Z,50.27
2018-02-21T10:26:47.198Z,48.30
2018-02-21T10:29:14.694Z,156.47
2018-02-21T10:31:42.938Z,47.87
2018-02-21T10:34:10.411Z,47.70
2018-02-21T10:36:37.922Z,48.20
2018-02-21T10:39:06.396Z,46.90
2018-02-21T10:41:33.883Z,44.90
2018-02-21T10:44:01.347Z,46.80
2018-02-21T10:46:32.599Z,46.10
2018-02-21T10:49:00.092Z,45.23
2018-02-21T10:51:27.566Z,43.63
2018-02-21T10:53:56.288Z,41.03
2018-02-21T10:56:23.773Z,44.37
2018-02-21T10:58:52.265Z,39.03
2018-02-21T11:01:29.333Z,42.33
2018-02-21T11:03:56.793Z,38.93
2018-02-21T11:06:25.026Z,38.43
2018-02-21T11:08:52.694Z,38.17
2018-02-21T11:11:20.238Z,37.00
2018-02-21T11:13:47.714Z,35.90
2018-02-21T11:16:15.362Z,39.00
2018-02-21T11:18:42.822Z,37.33
2018-02-21T11:21:10.324Z,35.90
2018-02-21T11:23:38.618Z,35.80
2018-02-21T11:26:06.031Z,34.90
2018-02-21T11:28:33.542Z,37.47
2018-02-21T11:31:01.025Z,36.80
2018-02-21T11:33:28.491Z,33.47
2018-02-21T11:35:56.191Z,33.10
2018-02-21T11:38:24.430Z,34.07
2018-02-21T11:40:51.903Z,34.17
2018-02-21T11:43:19.407Z,31.57
2018-02-21T11:45:47.058Z,31.60
2018-02-21T11:48:16.111Z,32.83
2018-02-21T11:50:44.432Z,31.47
2018-02-21T11:53:12.830Z,29.77
2018-02-21T11:55:40.292Z,31.03
2018-02-21T11:58:07.946Z,29.67
2018-02-21T12:00:35.434Z,30.67
2018-02-21T12:03:03.222Z,30.50
2018-02-21T12:05:31.575Z,32.73
2018-02-21T12:07:59.834Z,30.57
2018-02-21T12:10:27.363Z,31.30
2018-02-21T12:12:54.851Z,30.80
2018-02-21T12:15:22.313Z,33.00
2018-02-21T12:17:49.790Z,32.03
2018-02-21T12:20:17.250Z,31.50
2018-02-21T12:22:45.486Z,32.33
2018-02-21T12:25:12.975Z,33.27
2018-02-21T12:27:40.535Z,31.90
2018-02-21T12:30:07.999Z,29.90
2018-02-21T12:32:39.898Z,31.40
2018-02-21T12:35:07.371Z,30.77
2018-02-21T12:37:34.878Z,30.80
2018-02-21T12:40:03.152Z,29.90
2018-02-21T12:42:31.401Z,29.03
2018-02-21T12:44:58.867Z,27.83
2018-02-21T12:47:26.351Z,29.47
2018-02-21T12:49:54.586Z,28.13
2018-02-21T12:52:22.067Z,30.57
2018-02-21T12:54:50.310Z,31.33
2018-02-21T12:57:17.788Z,28.70
2018-02-21T12:59:45.258Z,30.00
2018-02-21T13:02:13.515Z,27.30
2018-02-21T13:04:40.983Z,27.53
2018-02-21T13:07:08.448Z,26.53
2018-02-21T13:09:36.702Z,29.23
2018-02-21T13:12:04.172Z,29.47
2018-02-21T13:14:31.639Z,27.50
2018-02-21T13:16:59.910Z,27.73
2018-02-21T13:19:28.175Z,26.20
2018-02-21T13:21:55.684Z,27.20
2018-02-21T13:24:23.214Z,30.40
2018-02-21T13:26:50.677Z,30.60
2018-02-21T13:29:18.515Z,30.70
2018-02-21T13:31:45.989Z,28.30
2018-02-21T13:34:13.468Z,27.40
2018-02-21T13:36:40.947Z,30.20
2018-02-21T13:39:08.405Z,29.13
2018-02-21T13:41:35.871Z,27.00
2018-02-21T13:44:03.354Z,25.73
2018-02-21T13:46:31.595Z,25.10
2018-02-21T13:48:59.098Z,25.17
2018-02-21T13:51:27.361Z,24.87
2018-02-21T13:53:54.794Z,27.23
2018-02-21T13:56:22.367Z,26.37
2018-02-21T13:58:49.827Z,24.37
2018-02-21T14:01:17.388Z,25.30
2018-02-21T14:03:44.867Z,24.17
2018-02-21T14:06:13.099Z,24.67
2018-02-21T14:08:40.562Z,23.57
2018-02-21T14:11:08.060Z,24.20
2018-02-21T14:13:36.283Z,23.63
2018-02-21T14:16:03.738Z,24.63
2018-02-21T14:18:31.214Z,23.47
2018-02-21T14:21:00.197Z,23.33
2018-02-21T14:23:27.662Z,22.77
2018-02-21T14:25:55.153Z,21.67
2018-02-21T14:28:22.625Z,22.53
2018-02-21T14:30:50.110Z,22.50
2018-02-21T14:33:17.623Z,21.37
2018-02-21T14:35:45.094Z,22.80
2018-02-21T14:38:12.564Z,22.23
2018-02-21T14:40:40.049Z,21.43
2018-02-21T14:43:07.516Z,22.30
2018-02-21T14:45:34.991Z,22.20
2018-02-21T14:48:03.247Z,20.90
2018-02-21T14:50:30.708Z,20.17
2018-02-21T14:52:58.170Z,21.90
2018-02-21T14:55:26.448Z,22.73
2018-02-21T14:57:54.687Z,21.83
2018-02-21T15:00:22.161Z,21.90
2018-02-21T15:02:49.656Z,22.10
2018-02-21T15:05:17.114Z,22.07
2018-02-21T15:07:44.585Z,23.60
2018-02-21T15:10:12.088Z,24.37
2018-02-21T15:12:39.554Z,22.90
2018-02-21T15:15:07.022Z,24.43
2018-02-21T15:17:35.278Z,23.60
2018-02-21T15:20:02.782Z,24.70
2018-02-21T15:22:30.350Z,24.57
2018-02-21T15:24:57.850Z,23.13
2018-02-21T15:27:25.330Z,21.10
2018-02-21T15:29:53.556Z,22.47
2018-02-21T15:32:21.056Z,20.80
2018-02-21T15:34:49.310Z,22.30
2018-02-21T15:37:16.793Z,23.37
2018-02-21T15:39:45.027Z,23.30
2018-02-21T15:42:12.504Z,23.00
2018-02-21T15:44:39.984Z,22.33
2018-02-21T15:47:08.239Z,23.87
2018-02-21T15:49:35.720Z,23.30
2018-02-21T15:52:04.794Z,21.30
2018-02-21T15:54:32.274Z,24.87
2018-02-21T15:57:00.532Z,24.13
2018-02-21T15:59:28.016Z,24.20
2018-02-21T16:01:56.099Z,24.47
2018-02-21T16:04:23.562Z,23.73
2018-02-21T16:06:51.083Z,25.30
2018-02-21T16:09:19.873Z,23.93
2018-02-21T16:11:48.687Z,25.00
2018-02-21T16:14:16.172Z,24.27
2018-02-21T16:16:43.650Z,23.93
2018-02-21T16:19:11.119Z,24.53
2018-02-21T16:21:39.385Z,24.50
2018-02-21T16:24:06.852Z,26.37
2018-02-21T16:26:35.110Z,24.00
2018-02-21T16:29:02.579Z,23.93
2018-02-21T16:31:30.060Z,24.13
2018-02-21T16:33:58.325Z,25.17
2018-02-21T16:36:26.566Z,24.50
2018-02-21T16:38:54.025Z,24.13
2018-02-21T16:41:21.529Z,25.77
2018-02-21T16:43:49.021Z,26.03
2018-02-21T16:46:16.482Z,25.13
2018-02-21T16:48:44.776Z,26.00
2018-02-21T16:51:12.231Z,26.10
2018-02-21T16:53:39.709Z,25.00
2018-02-21T16:56:07.975Z,24.30
2018-02-21T16:58:35.446Z,28.10
2018-02-21T17:01:03.689Z,25.43
2018-02-21T17:03:31.172Z,25.40
2018-02-21T17:05:59.428Z,26.27
2018-02-21T17:08:26.926Z,25.83
2018-02-21T17:10:54.403Z,25.00
2018-02-21T17:13:21.859Z,25.17
2018-02-21T17:15:49.368Z,25.40
2018-02-21T17:18:17.602Z,25.40
2018-02-21T17:20:45.103Z,25.60
2018-02-21T17:23:12.589Z,25.40
2018-02-21T17:25:40.054Z,27.73
2018-02-21T17:28:07.536Z,27.23
2018-02-21T17:30:35.037Z,27.83
2018-02-21T17:33:03.282Z,25.88
2018-02-21T17:35:30.746Z,28.30
2018-02-21T17:37:58.244Z,26.60
2018-02-21T17:40:25.711Z,25.70
2018-02-21T17:42:53.185Z,27.27
2018-02-21T17:45:20.694Z,26.90
2018-02-21T17:47:48.930Z,26.75
2018-02-21T17:50:16.408Z,24.70
2018-02-21T17:52:43.894Z,24.35
2018-02-21T17:55:11.365Z,28.77
2018-02-21T17:57:38.847Z,26.77
2018-02-21T18:00:06.346Z,26.65
2018-02-21T18:02:34.594Z,24.98
2018-02-21T18:05:02.076Z,24.48
2018-02-21T18:07:30.344Z,24.67
2018-02-21T18:09:57.830Z,24.70
2018-02-21T18:12:25.291Z,26.15
2018-02-21T18:14:52.779Z,25.10
2018-02-21T18:17:20.267Z,26.62
2018-02-21T18:19:47.769Z,27.55
2018-02-21T18:22:15.262Z,27.40
2018-02-21T18:24:42.738Z,28.75
2018-02-21T18:27:10.244Z,27.95
2018-02-21T18:29:37.727Z,25.88
2018-02-21T18:32:05.202Z,27.08
2018-02-21T18:34:32.722Z,28.15
2018-02-21T18:37:00.196Z,27.92
2018-02-21T18:39:27.654Z,28.75
2018-02-21T18:41:55.157Z,27.55
2018-02-21T18:44:23.391Z,26.65
2018-02-21T18:46:50.881Z,26.65
2018-02-21T18:49:19.718Z,27.27
2018-02-21T18:51:47.196Z,26.65
2018-02-21T18:54:14.659Z,27.65
2018-02-21T18:56:42.159Z,27.50
2018-02-21T18:59:10.401Z,28.25
2018-02-21T19:01:37.878Z,28.70
2018-02-21T19:04:06.121Z,27.62
2018-02-21T19:06:33.623Z,25.95
2018-02-21T19:09:01.097Z,27.65
2018-02-21T19:11:28.595Z,26.05
2018-02-21T19:13:56.083Z,27.95
2018-02-21T19:16:24.462Z,26.25
2018-02-21T19:18:52.711Z,27.05
2018-02-21T19:21:20.213Z,25.30
2018-02-21T19:23:47.704Z,27.35
2018-02-21T19:26:15.185Z,26.75
2018-02-21T19:28:42.681Z,28.23
2018-02-21T19:31:10.190Z,27.02
2018-02-21T19:33:37.660Z,28.75
2018-02-21T19:36:05.143Z,26.87
2018-02-21T19:38:32.625Z,26.85
2018-02-21T19:41:00.097Z,27.75
2018-02-21T19:43:27.569Z,26.85
2018-02-21T19:45:55.046Z,26.05
2018-02-21T19:48:22.554Z,25.33
2018-02-21T19:50:50.068Z,26.42
2018-02-21T19:53:18.392Z,26.50
2018-02-21T19:55:45.935Z,25.75
2018-02-21T19:58:13.432Z,26.33
2018-02-21T20:00:40.900Z,26.08
2018-02-21T20:03:08.370Z,27.25
2018-02-21T20:05:37.206Z,27.85
2018-02-21T20:08:04.702Z,26.05
2018-02-21T20:10:32.178Z,26.20
2018-02-21T20:13:00.452Z,26.48
2018-02-21T20:15:28.695Z,27.00
2018-02-21T20:17:56.174Z,25.75
2018-02-21T20:20:26.575Z,25.02
2018-02-21T20:22:54.071Z,23.87
2018-02-21T20:25:22.335Z,25.42
2018-02-21T20:27:49.813Z,24.85
2018-02-21T20:30:18.034Z,25.52
2018-02-21T20:32:45.534Z,25.20
2018-02-21T20:35:13.774Z,26.50
2018-02-21T20:37:41.246Z,25.08
2018-02-21T20:40:08.747Z,22.45
2018-02-21T20:42:36.219Z,25.85
2018-02-21T20:45:03.693Z,25.37
2018-02-21T20:47:31.189Z,25.08
2018-02-21T20:49:59.440Z,24.63
2018-02-21T20:52:28.373Z,25.30
2018-02-21T20:54:55.907Z,23.20
2018-02-21T20:57:23.382Z,23.92
2018-02-21T20:59:51.612Z,23.67
2018-02-21T21:02:19.208Z,24.48
2018-02-21T21:04:47.462Z,22.90
2018-02-21T21:07:14.947Z,24.20
2018-02-21T21:09:43.174Z,25.42
2018-02-21T21:12:10.673Z,25.12
2018-02-21T21:14:38.920Z,26.17
2018-02-21T21:17:06.383Z,26.33
2018-02-21T21:19:33.899Z,24.50
2018-02-21T21:22:01.378Z,26.08
2018-02-21T21:24:28.966Z,26.25
2018-02-21T21:26:56.478Z,26.30
2018-02-21T21:29:23.950Z,24.60
2018-02-21T21:31:51.422Z,24.52
2018-02-21T21:34:18.902Z,26.40
2018-02-21T21:36:47.126Z,27.55
2018-02-21T21:39:14.602Z,26.70
2018-02-21T21:41:42.081Z,24.02
2018-02-21T21:44:10.312Z,26.80
2018-02-21T21:46:37.860Z,25.55
2018-02-21T21:49:05.326Z,25.25
2018-02-21T21:51:32.786Z,26.67
2018-02-21T21:54:00.280Z,24.73
2018-02-21T21:56:27.803Z,26.50
2018-02-21T21:58:55.347Z,27.27
2018-02-21T22:01:22.814Z,24.77
2018-02-21T22:03:50.282Z,25.55
2018-02-21T22:06:17.756Z,25.48
2018-02-21T22:08:45.247Z,25.75
2018-02-21T22:11:13.482Z,26.70
2018-02-21T22:13:41.004Z,25.67
2018-02-21T22:16:08.478Z,27.58
2018-02-21T22:18:35.945Z,26.37
2018-02-21T22:21:03.397Z,23.00
2018-02-21T22:23:30.886Z,25.55
2018-02-21T22:25:58.387Z,26.33
2018-02-21T22:28:25.945Z,25.80
2018-02-21T22:30:53.428Z,28.42
2018-02-21T22:33:20.932Z,25.30
2018-02-21T22:35:48.387Z,25.48
2018-02-21T22:38:16.666Z,26.27
2018-02-21T22:40:44.900Z,25.75
2018-02-21T22:43:12.364Z,25.10
2018-02-21T22:45:39.851Z,24.95
2018-02-21T22:48:08.092Z,25.20
2018-02-21T22:50:35.562Z,25.25
2018-02-21T22:53:03.064Z,25.45
2018-02-21T22:55:30.527Z,27.42
2018-02-21T22:57:57.995Z,25.70
2018-02-21T23:00:25.483Z,26.77
2018-02-21T23:02:53.728Z,26.15
2018-02-21T23:05:21.191Z,27.20
2018-02-21T23:07:48.787Z,25.25
2018-02-21T23:10:16.256Z,26.80
2018-02-21T23:12:44.489Z,26.23
2018-02-21T23:15:11.971Z,25.10
2018-02-21T23:17:40.203Z,26.80
2018-02-21T23:20:07.706Z,26.75
2018-02-21T23:22:35.947Z,25.40
2018-02-21T23:25:03.415Z,26.60
2018-02-21T23:27:30.916Z,26.60
2018-02-21T23:29:59.135Z,26.05
2018-02-21T23:32:26.599Z,27.87
2018-02-21T23:34:54.087Z,25.62
2018-02-21T23:37:22.326Z,25.17
2018-02-21T23:39:49.795Z,27.58
2018-02-21T23:42:17.288Z,25.98
2018-02-21T23:44:45.510Z,25.88
2018-02-21T23:47:12.990Z,27.00
2018-02-21T23:49:40.478Z,24.83
2018-02-21T23:52:07.941Z,25.48
2018-02-21T23:54:35.513Z,23.98
2018-02-21T23:57:02.974Z,25.70
2018-02-21T23:59:30.464Z,25.67
